sensor_id;sensor_type;location;lat;lon;timestamp;P1;durP1;ratioP1;P2;durP2;ratioP2
40355;SDS011;26061;50.044;19.930;2022-10-16T00:01:08;11.88;;;8.90;;
40355;SDS011;26061;50.044;19.930;2022-10-16T00:03:37;15.05;;;9.35;;
40355;SDS011;26061;50.044;19.930;2022-10-16T00:06:08;11.98;;;9.27;;
40355;SDS011;26061;50.044;19.930;2022-10-16T00:08:35;11.00;;;8.55;;
40355;SDS011;26061;50.044;19.930;2022-10-16T00:11:02;13.93;;;9.00;;
40355;SDS011;26061;50.044;19.930;2022-10-16T00:13:33;11.02;;;8.40;;
40355;SDS011;26061;50.044;19.930;2022-10-16T00:16:01;13.98;;;8.85;;
40355;SDS011;26061;50.044;19.930;2022-10-16T00:18:27;13.43;;;8.73;;
40355;SDS011;26061;50.044;19.930;2022-10-16T00:20:53;12.07;;;8.45;;
40355;SDS011;26061;50.044;19.930;2022-10-16T00:23:19;14.98;;;9.13;;
40355;SDS011;26061;50.044;19.930;2022-10-16T00:25:53;12.52;;;9.38;;
40355;SDS011;26061;50.044;19.930;2022-10-16T00:28:20;11.40;;;8.68;;
40355;SDS011;26061;50.044;19.930;2022-10-16T00:30:46;10.95;;;8.32;;
40355;SDS011;26061;50.044;19.930;2022-10-16T00:33:12;14.68;;;9.60;;
40355;SDS011;26061;50.044;19.930;2022-10-16T00:35:37;11.32;;;9.25;;
40355;SDS011;26061;50.044;19.930;2022-10-16T00:38:03;10.35;;;8.23;;
40355;SDS011;26061;50.044;19.930;2022-10-16T00:40:28;11.98;;;8.90;;
40355;SDS011;26061;50.044;19.930;2022-10-16T00:42:54;14.77;;;9.82;;
40355;SDS011;26061;50.044;19.930;2022-10-16T00:45:20;13.10;;;10.15;;
40355;SDS011;26061;50.044;19.930;2022-10-16T00:47:46;15.30;;;9.65;;
40355;SDS011;26061;50.044;19.930;2022-10-16T00:50:22;12.30;;;9.43;;
40355;SDS011;26061;50.044;19.930;2022-10-16T00:52:55;19.00;;;9.40;;
40355;SDS011;26061;50.044;19.930;2022-10-16T00:55:22;12.30;;;9.20;;
40355;SDS011;26061;50.044;19.930;2022-10-16T00:57:49;13.35;;;8.30;;
40355;SDS011;26061;50.044;19.930;2022-10-16T01:00:16;10.38;;;8.68;;
40355;SDS011;26061;50.044;19.930;2022-10-16T01:02:57;13.75;;;9.43;;
40355;SDS011;26061;50.044;19.930;2022-10-16T01:05:44;14.23;;;9.25;;
40355;SDS011;26061;50.044;19.930;2022-10-16T01:08:21;14.75;;;8.93;;
40355;SDS011;26061;50.044;19.930;2022-10-16T01:11:09;13.10;;;9.27;;
40355;SDS011;26061;50.044;19.930;2022-10-16T01:13:48;13.30;;;8.77;;
40355;SDS011;26061;50.044;19.930;2022-10-16T01:16:34;13.60;;;9.13;;
40355;SDS011;26061;50.044;19.930;2022-10-16T01:21:59;11.13;;;9.43;;
40355;SDS011;26061;50.044;19.930;2022-10-16T01:29:50;15.18;;;8.95;;
40355;SDS011;26061;50.044;19.930;2022-10-16T01:32:32;17.63;;;9.80;;
40355;SDS011;26061;50.044;19.930;2022-10-16T01:35:10;12.93;;;8.90;;
40355;SDS011;26061;50.044;19.930;2022-10-16T01:37:46;18.23;;;9.73;;
40355;SDS011;26061;50.044;19.930;2022-10-16T01:40:17;15.70;;;9.20;;
40355;SDS011;26061;50.044;19.930;2022-10-16T01:42:46;15.40;;;10.05;;
40355;SDS011;26061;50.044;19.930;2022-10-16T01:45:18;14.43;;;9.32;;
40355;SDS011;26061;50.044;19.930;2022-10-16T01:47:45;13.63;;;9.90;;
40355;SDS011;26061;50.044;19.930;2022-10-16T01:50:13;16.40;;;10.00;;
40355;SDS011;26061;50.044;19.930;2022-10-16T01:52:42;14.75;;;9.65;;
40355;SDS011;26061;50.044;19.930;2022-10-16T01:55:10;13.35;;;9.90;;
40355;SDS011;26061;50.044;19.930;2022-10-16T01:57:41;13.55;;;9.55;;
40355;SDS011;26061;50.044;19.930;2022-10-16T02:00:10;13.10;;;10.23;;
40355;SDS011;26061;50.044;19.930;2022-10-16T02:02:40;13.05;;;9.40;;
40355;SDS011;26061;50.044;19.930;2022-10-16T02:07:56;18.00;;;9.85;;
40355;SDS011;26061;50.044;19.930;2022-10-16T02:10:22;13.98;;;9.30;;
40355;SDS011;26061;50.044;19.930;2022-10-16T02:12:57;14.75;;;9.93;;
40355;SDS011;26061;50.044;19.930;2022-10-16T02:15:44;12.05;;;8.90;;
40355;SDS011;26061;50.044;19.930;2022-10-16T02:18:10;14.38;;;8.95;;
40355;SDS011;26061;50.044;19.930;2022-10-16T02:20:38;14.88;;;9.88;;
40355;SDS011;26061;50.044;19.930;2022-10-16T02:23:19;15.55;;;9.98;;
40355;SDS011;26061;50.044;19.930;2022-10-16T02:25:51;12.75;;;9.05;;
40355;SDS011;26061;50.044;19.930;2022-10-16T02:28:21;16.02;;;9.77;;
40355;SDS011;26061;50.044;19.930;2022-10-16T02:30:51;15.23;;;10.32;;
40355;SDS011;26061;50.044;19.930;2022-10-16T02:33:21;14.45;;;9.65;;
40355;SDS011;26061;50.044;19.930;2022-10-16T02:35:49;14.82;;;9.55;;
40355;SDS011;26061;50.044;19.930;2022-10-16T02:38:16;17.25;;;10.90;;
40355;SDS011;26061;50.044;19.930;2022-10-16T02:40:43;13.80;;;10.02;;
40355;SDS011;26061;50.044;19.930;2022-10-16T02:43:09;15.60;;;9.50;;
40355;SDS011;26061;50.044;19.930;2022-10-16T02:45:36;16.30;;;10.82;;
40355;SDS011;26061;50.044;19.930;2022-10-16T02:48:02;14.07;;;10.48;;
40355;SDS011;26061;50.044;19.930;2022-10-16T02:50:28;14.88;;;10.38;;
40355;SDS011;26061;50.044;19.930;2022-10-16T02:52:54;13.15;;;9.57;;
40355;SDS011;26061;50.044;19.930;2022-10-16T02:55:19;13.38;;;9.90;;
40355;SDS011;26061;50.044;19.930;2022-10-16T02:57:45;17.65;;;10.35;;
40355;SDS011;26061;50.044;19.930;2022-10-16T03:00:12;16.98;;;10.55;;
40355;SDS011;26061;50.044;19.930;2022-10-16T03:02:39;16.45;;;11.00;;
40355;SDS011;26061;50.044;19.930;2022-10-16T03:05:05;17.10;;;10.75;;
40355;SDS011;26061;50.044;19.930;2022-10-16T03:07:31;14.93;;;10.48;;
40355;SDS011;26061;50.044;19.930;2022-10-16T03:09:57;15.82;;;11.70;;
40355;SDS011;26061;50.044;19.930;2022-10-16T03:12:26;18.75;;;11.73;;
40355;SDS011;26061;50.044;19.930;2022-10-16T03:14:51;19.40;;;11.18;;
40355;SDS011;26061;50.044;19.930;2022-10-16T03:17:17;13.95;;;10.85;;
40355;SDS011;26061;50.044;19.930;2022-10-16T03:19:43;15.88;;;11.63;;
40355;SDS011;26061;50.044;19.930;2022-10-16T03:22:09;17.27;;;11.77;;
40355;SDS011;26061;50.044;19.930;2022-10-16T03:24:34;18.80;;;12.07;;
40355;SDS011;26061;50.044;19.930;2022-10-16T03:27:00;17.25;;;11.35;;
40355;SDS011;26061;50.044;19.930;2022-10-16T03:29:25;22.17;;;12.32;;
40355;SDS011;26061;50.044;19.930;2022-10-16T03:31:52;17.63;;;12.40;;
40355;SDS011;26061;50.044;19.930;2022-10-16T03:34:18;17.50;;;12.63;;
40355;SDS011;26061;50.044;19.930;2022-10-16T03:36:44;17.92;;;11.98;;
40355;SDS011;26061;50.044;19.930;2022-10-16T03:39:09;18.58;;;12.88;;
40355;SDS011;26061;50.044;19.930;2022-10-16T03:41:35;18.95;;;12.63;;
40355;SDS011;26061;50.044;19.930;2022-10-16T03:44:00;20.65;;;13.73;;
40355;SDS011;26061;50.044;19.930;2022-10-16T03:46:26;19.27;;;12.88;;
40355;SDS011;26061;50.044;19.930;2022-10-16T03:48:52;19.42;;;13.35;;
40355;SDS011;26061;50.044;19.930;2022-10-16T03:51:17;20.60;;;13.88;;
40355;SDS011;26061;50.044;19.930;2022-10-16T03:53:43;19.20;;;13.27;;
40355;SDS011;26061;50.044;19.930;2022-10-16T03:56:09;20.35;;;13.13;;
40355;SDS011;26061;50.044;19.930;2022-10-16T03:58:34;20.48;;;12.77;;
40355;SDS011;26061;50.044;19.930;2022-10-16T04:01:00;20.00;;;13.35;;
40355;SDS011;26061;50.044;19.930;2022-10-16T04:03:25;22.23;;;13.73;;
40355;SDS011;26061;50.044;19.930;2022-10-16T04:05:51;16.95;;;13.15;;
40355;SDS011;26061;50.044;19.930;2022-10-16T04:08:17;19.40;;;13.30;;
40355;SDS011;26061;50.044;19.930;2022-10-16T04:10:43;20.98;;;13.98;;
40355;SDS011;26061;50.044;19.930;2022-10-16T04:13:09;21.13;;;12.70;;
40355;SDS011;26061;50.044;19.930;2022-10-16T04:15:35;18.27;;;12.80;;
40355;SDS011;26061;50.044;19.930;2022-10-16T04:18:01;17.35;;;12.77;;
40355;SDS011;26061;50.044;19.930;2022-10-16T04:20:26;19.15;;;12.77;;
40355;SDS011;26061;50.044;19.930;2022-10-16T04:22:52;17.80;;;12.93;;
40355;SDS011;26061;50.044;19.930;2022-10-16T04:25:18;21.80;;;13.68;;
40355;SDS011;26061;50.044;19.930;2022-10-16T04:27:43;22.80;;;13.88;;
40355;SDS011;26061;50.044;19.930;2022-10-16T04:30:09;23.52;;;13.43;;
40355;SDS011;26061;50.044;19.930;2022-10-16T04:32:35;21.50;;;14.68;;
40355;SDS011;26061;50.044;19.930;2022-10-16T04:35:01;24.70;;;13.45;;
40355;SDS011;26061;50.044;19.930;2022-10-16T04:37:28;22.27;;;13.85;;
40355;SDS011;26061;50.044;19.930;2022-10-16T04:39:53;23.98;;;15.07;;
40355;SDS011;26061;50.044;19.930;2022-10-16T04:42:19;24.60;;;12.93;;
40355;SDS011;26061;50.044;19.930;2022-10-16T04:44:45;22.85;;;14.90;;
40355;SDS011;26061;50.044;19.930;2022-10-16T04:47:11;21.08;;;13.68;;
40355;SDS011;26061;50.044;19.930;2022-10-16T04:49:38;21.42;;;13.85;;
40355;SDS011;26061;50.044;19.930;2022-10-16T04:52:04;26.10;;;15.65;;
40355;SDS011;26061;50.044;19.930;2022-10-16T04:54:30;19.88;;;14.30;;
40355;SDS011;26061;50.044;19.930;2022-10-16T04:56:55;21.88;;;14.18;;
40355;SDS011;26061;50.044;19.930;2022-10-16T04:59:23;22.45;;;14.80;;
40355;SDS011;26061;50.044;19.930;2022-10-16T05:01:49;23.80;;;14.68;;
40355;SDS011;26061;50.044;19.930;2022-10-16T05:04:15;25.45;;;15.63;;
40355;SDS011;26061;50.044;19.930;2022-10-16T05:06:41;29.38;;;15.30;;
40355;SDS011;26061;50.044;19.930;2022-10-16T05:09:08;23.50;;;14.10;;
40355;SDS011;26061;50.044;19.930;2022-10-16T05:11:34;24.02;;;15.55;;
40355;SDS011;26061;50.044;19.930;2022-10-16T05:14:00;24.08;;;15.50;;
40355;SDS011;26061;50.044;19.930;2022-10-16T05:16:26;22.40;;;14.45;;
40355;SDS011;26061;50.044;19.930;2022-10-16T05:18:52;24.73;;;15.32;;
40355;SDS011;26061;50.044;19.930;2022-10-16T05:21:18;25.33;;;15.70;;
40355;SDS011;26061;50.044;19.930;2022-10-16T05:23:44;27.55;;;16.80;;
40355;SDS011;26061;50.044;19.930;2022-10-16T05:26:10;27.08;;;16.38;;
40355;SDS011;26061;50.044;19.930;2022-10-16T05:28:36;22.88;;;15.45;;
40355;SDS011;26061;50.044;19.930;2022-10-16T05:31:08;28.00;;;16.65;;
40355;SDS011;26061;50.044;19.930;2022-10-16T05:33:34;30.00;;;16.75;;
40355;SDS011;26061;50.044;19.930;2022-10-16T05:36:01;23.58;;;16.38;;
40355;SDS011;26061;50.044;19.930;2022-10-16T05:38:28;25.88;;;16.40;;
40355;SDS011;26061;50.044;19.930;2022-10-16T05:40:55;27.10;;;16.67;;
40355;SDS011;26061;50.044;19.930;2022-10-16T05:43:22;23.73;;;16.50;;
40355;SDS011;26061;50.044;19.930;2022-10-16T05:45:54;26.58;;;15.93;;
40355;SDS011;26061;50.044;19.930;2022-10-16T05:48:24;25.80;;;16.40;;
40355;SDS011;26061;50.044;19.930;2022-10-16T05:51:00;29.92;;;17.30;;
40355;SDS011;26061;50.044;19.930;2022-10-16T05:53:33;26.33;;;16.73;;
40355;SDS011;26061;50.044;19.930;2022-10-16T05:55:59;24.58;;;16.75;;
40355;SDS011;26061;50.044;19.930;2022-10-16T05:58:30;23.77;;;15.65;;
40355;SDS011;26061;50.044;19.930;2022-10-16T06:03:28;26.88;;;16.88;;
40355;SDS011;26061;50.044;19.930;2022-10-16T06:05:53;24.58;;;16.10;;
40355;SDS011;26061;50.044;19.930;2022-10-16T06:08:20;26.15;;;16.10;;
40355;SDS011;26061;50.044;19.930;2022-10-16T06:10:47;21.65;;;15.18;;
40355;SDS011;26061;50.044;19.930;2022-10-16T06:13:13;20.67;;;15.18;;
40355;SDS011;26061;50.044;19.930;2022-10-16T06:15:39;22.30;;;14.70;;
40355;SDS011;26061;50.044;19.930;2022-10-16T06:18:07;21.70;;;13.77;;
40355;SDS011;26061;50.044;19.930;2022-10-16T06:20:34;21.45;;;14.10;;
40355;SDS011;26061;50.044;19.930;2022-10-16T06:23:00;25.88;;;15.35;;
40355;SDS011;26061;50.044;19.930;2022-10-16T06:25:26;25.20;;;15.15;;
40355;SDS011;26061;50.044;19.930;2022-10-16T06:27:51;22.25;;;14.63;;
40355;SDS011;26061;50.044;19.930;2022-10-16T06:30:17;20.48;;;13.75;;
40355;SDS011;26061;50.044;19.930;2022-10-16T06:32:42;21.00;;;13.20;;
40355;SDS011;26061;50.044;19.930;2022-10-16T06:35:08;20.05;;;14.07;;
40355;SDS011;26061;50.044;19.930;2022-10-16T06:37:34;24.88;;;13.23;;
40355;SDS011;26061;50.044;19.930;2022-10-16T06:39:59;20.25;;;13.95;;
40355;SDS011;26061;50.044;19.930;2022-10-16T06:42:25;24.08;;;13.68;;
40355;SDS011;26061;50.044;19.930;2022-10-16T06:44:51;24.85;;;13.90;;
40355;SDS011;26061;50.044;19.930;2022-10-16T06:47:16;19.38;;;13.27;;
40355;SDS011;26061;50.044;19.930;2022-10-16T06:49:42;21.65;;;13.30;;
40355;SDS011;26061;50.044;19.930;2022-10-16T06:52:08;18.25;;;12.30;;
40355;SDS011;26061;50.044;19.930;2022-10-16T06:54:33;19.25;;;12.82;;
40355;SDS011;26061;50.044;19.930;2022-10-16T06:56:59;17.25;;;12.57;;
40355;SDS011;26061;50.044;19.930;2022-10-16T06:59:26;21.90;;;12.90;;
40355;SDS011;26061;50.044;19.930;2022-10-16T07:01:51;22.60;;;12.73;;
40355;SDS011;26061;50.044;19.930;2022-10-16T07:04:17;20.45;;;11.95;;
40355;SDS011;26061;50.044;19.930;2022-10-16T07:06:43;20.27;;;11.30;;
40355;SDS011;26061;50.044;19.930;2022-10-16T07:09:09;26.92;;;11.45;;
40355;SDS011;26061;50.044;19.930;2022-10-16T07:11:38;17.70;;;10.20;;
40355;SDS011;26061;50.044;19.930;2022-10-16T07:14:11;15.57;;;10.60;;
40355;SDS011;26061;50.044;19.930;2022-10-16T07:16:40;16.15;;;10.20;;
40355;SDS011;26061;50.044;19.930;2022-10-16T07:19:06;15.90;;;10.65;;
40355;SDS011;26061;50.044;19.930;2022-10-16T07:21:32;18.30;;;10.07;;
40355;SDS011;26061;50.044;19.930;2022-10-16T07:24:04;15.52;;;9.73;;
40355;SDS011;26061;50.044;19.930;2022-10-16T07:26:33;14.80;;;9.48;;
40355;SDS011;26061;50.044;19.930;2022-10-16T07:29:00;13.30;;;9.55;;
40355;SDS011;26061;50.044;19.930;2022-10-16T07:31:26;16.67;;;10.52;;
40355;SDS011;26061;50.044;19.930;2022-10-16T07:33:53;17.10;;;10.75;;
40355;SDS011;26061;50.044;19.930;2022-10-16T07:36:19;15.82;;;10.80;;
40355;SDS011;26061;50.044;19.930;2022-10-16T07:38:45;11.75;;;10.00;;
40355;SDS011;26061;50.044;19.930;2022-10-16T07:41:13;15.25;;;10.20;;
40355;SDS011;26061;50.044;19.930;2022-10-16T07:43:45;17.27;;;10.65;;
40355;SDS011;26061;50.044;19.930;2022-10-16T07:46:12;16.15;;;9.93;;
40355;SDS011;26061;50.044;19.930;2022-10-16T07:48:39;15.50;;;10.57;;
40355;SDS011;26061;50.044;19.930;2022-10-16T07:51:06;14.77;;;10.27;;
40355;SDS011;26061;50.044;19.930;2022-10-16T07:53:32;36.92;;;9.88;;
40355;SDS011;26061;50.044;19.930;2022-10-16T07:55:59;14.75;;;10.38;;
40355;SDS011;26061;50.044;19.930;2022-10-16T07:58:26;12.55;;;9.20;;
40355;SDS011;26061;50.044;19.930;2022-10-16T08:00:53;15.30;;;10.00;;
40355;SDS011;26061;50.044;19.930;2022-10-16T08:03:19;15.05;;;10.68;;
40355;SDS011;26061;50.044;19.930;2022-10-16T08:05:45;17.33;;;10.15;;
40355;SDS011;26061;50.044;19.930;2022-10-16T08:08:13;17.77;;;10.48;;
40355;SDS011;26061;50.044;19.930;2022-10-16T08:10:41;15.80;;;10.57;;
40355;SDS011;26061;50.044;19.930;2022-10-16T08:13:06;14.65;;;10.82;;
40355;SDS011;26061;50.044;19.930;2022-10-16T08:15:33;16.73;;;10.70;;
40355;SDS011;26061;50.044;19.930;2022-10-16T08:18:02;18.10;;;10.45;;
40355;SDS011;26061;50.044;19.930;2022-10-16T08:20:29;17.50;;;11.77;;
40355;SDS011;26061;50.044;19.930;2022-10-16T08:22:56;14.57;;;11.00;;
40355;SDS011;26061;50.044;19.930;2022-10-16T08:25:22;13.80;;;10.18;;
40355;SDS011;26061;50.044;19.930;2022-10-16T08:27:48;15.52;;;10.23;;
40355;SDS011;26061;50.044;19.930;2022-10-16T08:30:15;14.63;;;10.23;;
40355;SDS011;26061;50.044;19.930;2022-10-16T08:32:41;16.60;;;10.50;;
40355;SDS011;26061;50.044;19.930;2022-10-16T08:35:08;14.80;;;9.52;;
40355;SDS011;26061;50.044;19.930;2022-10-16T08:37:34;15.35;;;9.63;;
40355;SDS011;26061;50.044;19.930;2022-10-16T08:40:00;17.58;;;10.10;;
40355;SDS011;26061;50.044;19.930;2022-10-16T08:50:49;13.40;;;9.23;;
40355;SDS011;26061;50.044;19.930;2022-10-16T08:54:02;15.32;;;10.23;;
40355;SDS011;26061;50.044;19.930;2022-10-16T08:56:08;16.83;;;9.88;;
40355;SDS011;26061;50.044;19.930;2022-10-16T08:58:34;14.10;;;9.50;;
40355;SDS011;26061;50.044;19.930;2022-10-16T09:01:00;11.63;;;9.30;;
40355;SDS011;26061;50.044;19.930;2022-10-16T09:11:53;12.00;;;8.77;;
40355;SDS011;26061;50.044;19.930;2022-10-16T09:19:54;9.70;;;7.65;;
40355;SDS011;26061;50.044;19.930;2022-10-16T09:22:38;10.43;;;7.47;;
40355;SDS011;26061;50.044;19.930;2022-10-16T09:25:10;10.15;;;7.57;;
40355;SDS011;26061;50.044;19.930;2022-10-16T09:27:42;8.98;;;7.47;;
40355;SDS011;26061;50.044;19.930;2022-10-16T09:30:17;11.00;;;7.65;;
40355;SDS011;26061;50.044;19.930;2022-10-16T09:32:45;7.75;;;6.43;;
40355;SDS011;26061;50.044;19.930;2022-10-16T09:35:17;10.65;;;6.85;;
40355;SDS011;26061;50.044;19.930;2022-10-16T09:37:46;11.23;;;7.53;;
40355;SDS011;26061;50.044;19.930;2022-10-16T09:40:38;11.60;;;7.78;;
40355;SDS011;26061;50.044;19.930;2022-10-16T09:46:02;8.98;;;7.35;;
40355;SDS011;26061;50.044;19.930;2022-10-16T09:48:36;9.73;;;7.55;;
40355;SDS011;26061;50.044;19.930;2022-10-16T09:51:06;10.98;;;8.45;;
40355;SDS011;26061;50.044;19.930;2022-10-16T09:53:45;11.50;;;8.15;;
40355;SDS011;26061;50.044;19.930;2022-10-16T09:56:20;10.77;;;7.75;;
40355;SDS011;26061;50.044;19.930;2022-10-16T09:58:51;12.15;;;8.30;;
40355;SDS011;26061;50.044;19.930;2022-10-16T10:01:41;11.40;;;7.88;;
40355;SDS011;26061;50.044;19.930;2022-10-16T10:04:07;11.23;;;8.00;;
40355;SDS011;26061;50.044;19.930;2022-10-16T10:06:34;12.38;;;7.65;;
40355;SDS011;26061;50.044;19.930;2022-10-16T10:11:53;11.05;;;7.60;;
40355;SDS011;26061;50.044;19.930;2022-10-16T10:17:44;10.50;;;7.88;;
40355;SDS011;26061;50.044;19.930;2022-10-16T10:24:54;11.07;;;8.05;;
40355;SDS011;26061;50.044;19.930;2022-10-16T10:27:20;15.77;;;10.82;;
40355;SDS011;26061;50.044;19.930;2022-10-16T10:29:57;15.82;;;10.20;;
40355;SDS011;26061;50.044;19.930;2022-10-16T10:32:38;9.45;;;7.65;;
40355;SDS011;26061;50.044;19.930;2022-10-16T10:40:30;11.55;;;7.95;;
40355;SDS011;26061;50.044;19.930;2022-10-16T10:43:53;9.55;;;7.45;;
40355;SDS011;26061;50.044;19.930;2022-10-16T10:46:05;12.38;;;8.30;;
40355;SDS011;26061;50.044;19.930;2022-10-16T10:54:10;11.25;;;6.93;;
40355;SDS011;26061;50.044;19.930;2022-10-16T11:00:02;10.60;;;7.55;;
40355;SDS011;26061;50.044;19.930;2022-10-16T11:05:38;12.98;;;8.13;;
40355;SDS011;26061;50.044;19.930;2022-10-16T11:10:47;10.25;;;7.20;;
40355;SDS011;26061;50.044;19.930;2022-10-16T11:16:17;9.18;;;7.55;;
40355;SDS011;26061;50.044;19.930;2022-10-16T11:21:25;9.43;;;7.15;;
40355;SDS011;26061;50.044;19.930;2022-10-16T11:24:00;8.95;;;6.88;;
40355;SDS011;26061;50.044;19.930;2022-10-16T11:26:35;10.65;;;8.50;;
40355;SDS011;26061;50.044;19.930;2022-10-16T11:29:04;10.05;;;7.47;;
40355;SDS011;26061;50.044;19.930;2022-10-16T11:31:39;11.63;;;7.50;;
40355;SDS011;26061;50.044;19.930;2022-10-16T11:36:49;7.50;;;6.45;;
40355;SDS011;26061;50.044;19.930;2022-10-16T11:39:37;10.10;;;7.28;;
40355;SDS011;26061;50.044;19.930;2022-10-16T11:53:04;7.38;;;6.63;;
40355;SDS011;26061;50.044;19.930;2022-10-16T11:55:45;8.90;;;7.43;;
40355;SDS011;26061;50.044;19.930;2022-10-16T12:00:59;9.60;;;7.65;;
40355;SDS011;26061;50.044;19.930;2022-10-16T12:09:35;10.15;;;7.03;;
40355;SDS011;26061;50.044;19.930;2022-10-16T12:12:03;9.55;;;7.30;;
40355;SDS011;26061;50.044;19.930;2022-10-16T12:17:04;9.90;;;7.60;;
40355;SDS011;26061;50.044;19.930;2022-10-16T12:20:18;8.00;;;7.15;;
40355;SDS011;26061;50.044;19.930;2022-10-16T12:22:55;11.60;;;8.38;;
40355;SDS011;26061;50.044;19.930;2022-10-16T12:25:27;8.20;;;6.75;;
40355;SDS011;26061;50.044;19.930;2022-10-16T12:30:25;10.63;;;7.63;;
40355;SDS011;26061;50.044;19.930;2022-10-16T12:32:54;8.80;;;7.07;;
40355;SDS011;26061;50.044;19.930;2022-10-16T12:35:24;7.72;;;6.93;;
40355;SDS011;26061;50.044;19.930;2022-10-16T12:37:52;10.38;;;7.13;;
40355;SDS011;26061;50.044;19.930;2022-10-16T12:42:47;8.82;;;7.50;;
40355;SDS011;26061;50.044;19.930;2022-10-16T12:45:22;12.60;;;8.50;;
40355;SDS011;26061;50.044;19.930;2022-10-16T12:47:49;8.32;;;7.38;;
40355;SDS011;26061;50.044;19.930;2022-10-16T12:50:36;10.40;;;7.22;;
40355;SDS011;26061;50.044;19.930;2022-10-16T12:53:16;9.20;;;7.78;;
40355;SDS011;26061;50.044;19.930;2022-10-16T12:58:37;11.65;;;7.72;;
40355;SDS011;26061;50.044;19.930;2022-10-16T13:01:18;9.70;;;7.40;;
40355;SDS011;26061;50.044;19.930;2022-10-16T13:06:53;9.43;;;6.95;;
40355;SDS011;26061;50.044;19.930;2022-10-16T13:15:18;7.93;;;6.90;;
40355;SDS011;26061;50.044;19.930;2022-10-16T13:18:16;8.52;;;6.70;;
40355;SDS011;26061;50.044;19.930;2022-10-16T13:24:02;9.50;;;6.82;;
40355;SDS011;26061;50.044;19.930;2022-10-16T13:26:42;10.48;;;7.20;;
40355;SDS011;26061;50.044;19.930;2022-10-16T13:29:09;8.02;;;7.03;;
40355;SDS011;26061;50.044;19.930;2022-10-16T13:31:36;13.38;;;7.10;;
40355;SDS011;26061;50.044;19.930;2022-10-16T13:34:03;9.65;;;6.95;;
40355;SDS011;26061;50.044;19.930;2022-10-16T13:36:35;9.40;;;8.10;;
40355;SDS011;26061;50.044;19.930;2022-10-16T13:39:16;12.38;;;8.38;;
40355;SDS011;26061;50.044;19.930;2022-10-16T13:42:06;10.80;;;7.43;;
40355;SDS011;26061;50.044;19.930;2022-10-16T13:44:48;9.57;;;6.85;;
40355;SDS011;26061;50.044;19.930;2022-10-16T13:49:46;8.52;;;7.57;;
40355;SDS011;26061;50.044;19.930;2022-10-16T13:52:17;10.20;;;8.10;;
40355;SDS011;26061;50.044;19.930;2022-10-16T13:54:46;9.73;;;6.97;;
40355;SDS011;26061;50.044;19.930;2022-10-16T13:57:13;8.65;;;7.63;;
40355;SDS011;26061;50.044;19.930;2022-10-16T13:59:40;12.93;;;7.03;;
40355;SDS011;26061;50.044;19.930;2022-10-16T14:02:20;9.02;;;7.57;;
40355;SDS011;26061;50.044;19.930;2022-10-16T14:05:00;10.32;;;7.07;;
40355;SDS011;26061;50.044;19.930;2022-10-16T14:07:29;11.88;;;7.28;;
40355;SDS011;26061;50.044;19.930;2022-10-16T14:10:05;10.60;;;7.43;;
40355;SDS011;26061;50.044;19.930;2022-10-16T14:12:43;10.65;;;8.00;;
40355;SDS011;26061;50.044;19.930;2022-10-16T14:15:15;9.32;;;7.93;;
40355;SDS011;26061;50.044;19.930;2022-10-16T14:17:43;10.60;;;8.10;;
40355;SDS011;26061;50.044;19.930;2022-10-16T14:20:14;14.20;;;8.85;;
40355;SDS011;26061;50.044;19.930;2022-10-16T14:22:41;11.48;;;7.70;;
40355;SDS011;26061;50.044;19.930;2022-10-16T14:31:20;13.18;;;8.52;;
40355;SDS011;26061;50.044;19.930;2022-10-16T14:33:46;11.68;;;7.72;;
40355;SDS011;26061;50.044;19.930;2022-10-16T14:36:13;11.23;;;7.85;;
40355;SDS011;26061;50.044;19.930;2022-10-16T14:38:42;11.25;;;8.18;;
40355;SDS011;26061;50.044;19.930;2022-10-16T14:41:13;10.82;;;8.02;;
40355;SDS011;26061;50.044;19.930;2022-10-16T14:43:40;10.25;;;8.55;;
40355;SDS011;26061;50.044;19.930;2022-10-16T14:46:15;12.63;;;7.57;;
40355;SDS011;26061;50.044;19.930;2022-10-16T14:48:43;9.02;;;7.45;;
40355;SDS011;26061;50.044;19.930;2022-10-16T14:51:13;11.15;;;8.05;;
40355;SDS011;26061;50.044;19.930;2022-10-16T14:53:42;10.52;;;8.43;;
40355;SDS011;26061;50.044;19.930;2022-10-16T14:56:09;11.15;;;8.25;;
40355;SDS011;26061;50.044;19.930;2022-10-16T14:58:42;12.13;;;8.48;;
40355;SDS011;26061;50.044;19.930;2022-10-16T15:01:09;11.65;;;8.57;;
40355;SDS011;26061;50.044;19.930;2022-10-16T15:03:36;10.18;;;8.55;;
40355;SDS011;26061;50.044;19.930;2022-10-16T15:06:09;10.60;;;8.70;;
40355;SDS011;26061;50.044;19.930;2022-10-16T15:08:36;13.05;;;8.52;;
40355;SDS011;26061;50.044;19.930;2022-10-16T15:11:02;16.85;;;9.25;;
40355;SDS011;26061;50.044;19.930;2022-10-16T15:13:27;10.60;;;8.70;;
40355;SDS011;26061;50.044;19.930;2022-10-16T15:15:53;10.82;;;8.20;;
40355;SDS011;26061;50.044;19.930;2022-10-16T15:18:19;11.43;;;8.88;;
40355;SDS011;26061;50.044;19.930;2022-10-16T15:20:48;14.27;;;8.65;;
40355;SDS011;26061;50.044;19.930;2022-10-16T15:23:16;12.60;;;8.55;;
40355;SDS011;26061;50.044;19.930;2022-10-16T15:25:44;12.43;;;8.27;;
40355;SDS011;26061;50.044;19.930;2022-10-16T15:28:12;12.63;;;8.80;;
40355;SDS011;26061;50.044;19.930;2022-10-16T15:30:39;17.40;;;9.80;;
40355;SDS011;26061;50.044;19.930;2022-10-16T15:33:10;15.55;;;10.07;;
40355;SDS011;26061;50.044;19.930;2022-10-16T15:35:38;14.85;;;9.05;;
40355;SDS011;26061;50.044;19.930;2022-10-16T15:38:04;18.02;;;10.98;;
40355;SDS011;26061;50.044;19.930;2022-10-16T15:40:30;13.27;;;9.65;;
40355;SDS011;26061;50.044;19.930;2022-10-16T15:42:55;14.68;;;9.82;;
40355;SDS011;26061;50.044;19.930;2022-10-16T15:45:21;13.55;;;9.48;;
40355;SDS011;26061;50.044;19.930;2022-10-16T15:47:47;13.13;;;9.60;;
40355;SDS011;26061;50.044;19.930;2022-10-16T15:50:14;15.55;;;9.82;;
40355;SDS011;26061;50.044;19.930;2022-10-16T15:52:40;13.50;;;10.00;;
40355;SDS011;26061;50.044;19.930;2022-10-16T15:55:10;14.30;;;10.07;;
40355;SDS011;26061;50.044;19.930;2022-10-16T15:57:38;15.77;;;9.75;;
40355;SDS011;26061;50.044;19.930;2022-10-16T16:00:06;12.02;;;9.90;;
40355;SDS011;26061;50.044;19.930;2022-10-16T16:02:34;12.48;;;9.75;;
40355;SDS011;26061;50.044;19.930;2022-10-16T16:05:00;14.70;;;9.85;;
40355;SDS011;26061;50.044;19.930;2022-10-16T16:07:26;12.70;;;9.02;;
40355;SDS011;26061;50.044;19.930;2022-10-16T16:09:53;12.82;;;9.75;;
40355;SDS011;26061;50.044;19.930;2022-10-16T16:12:18;12.40;;;9.60;;
40355;SDS011;26061;50.044;19.930;2022-10-16T16:14:44;15.35;;;10.00;;
40355;SDS011;26061;50.044;19.930;2022-10-16T16:17:11;14.48;;;11.00;;
40355;SDS011;26061;50.044;19.930;2022-10-16T16:19:37;19.50;;;12.15;;
40355;SDS011;26061;50.044;19.930;2022-10-16T16:22:02;17.98;;;10.50;;
40355;SDS011;26061;50.044;19.930;2022-10-16T16:24:28;14.73;;;10.40;;
40355;SDS011;26061;50.044;19.930;2022-10-16T16:26:53;25.25;;;14.68;;
40355;SDS011;26061;50.044;19.930;2022-10-16T16:29:19;20.77;;;13.45;;
40355;SDS011;26061;50.044;19.930;2022-10-16T16:31:45;17.98;;;12.88;;
40355;SDS011;26061;50.044;19.930;2022-10-16T16:34:12;17.13;;;11.52;;
40355;SDS011;26061;50.044;19.930;2022-10-16T16:36:38;16.75;;;11.85;;